Time;durP1;ratioP1;P1;durP2;ratioP2;P2;SDS_P1;SDS_P2;PMS_P1;PMS_P2;Temp;Humidity;BMP_temperature;BMP_pressure;BME280_temperature;BME280_humidity;BME280_pressure;Samples;Min_cycle;Max_cycle;Signal;HPM_P1;HPM_P2
2023/05/21 00:02:05;;;;;;;8.73;1.30;;;;;;;;;;4972544;28;21121;-47
2023/05/21 00:04:32;;;;;;;7.40;1.35;;;;;;;;;;4975317;28;20042;-49
2023/05/21 00:07:00;;;;;;;4.30;1.10;;;;;;;;;;4961635;28;20046;-46
2023/05/21 00:09:30;;;;;;;4.40;1.23;;;;;;;;;;4980121;28;20038;-50
2023/05/21 00:11:58;;;;;;;5.07;1.20;;;;;;;;;;4969110;28;20045;-47
2023/05/21 00:14:26;;;;;;;4.93;1.30;;;;;;;;;;4972708;28;20031;-47
2023/05/21 00:16:54;;;;;;;6.07;1.08;;;;;;;;;;4973133;28;20512;-48
2023/05/21 00:19:23;;;;;;;3.85;1.08;;;;;;;;;;4966974;28;20051;-47
2023/05/21 00:21:53;;;;;;;5.07;1.30;;;;;;;;;;4984284;28;20042;-47
2023/05/21 00:24:21;;;;;;;4.75;1.17;;;;;;;;;;4964410;28;20046;-46
2023/05/21 00:26:51;;;;;;;6.03;1.30;;;;;;;;;;4971715;28;20129;-49
2023/05/21 00:29:19;;;;;;;5.43;1.17;;;;;;;;;;4990775;28;20598;-47
2023/05/21 00:31:49;;;;;;;4.82;1.15;;;;;;;;;;4969305;28;20033;-48
2023/05/21 00:34:16;;;;;;;8.80;1.30;;;;;;;;;;4974181;28;20041;-46
2023/05/21 00:36:44;;;;;;;4.55;1.05;;;;;;;;;;4971088;28;20045;-46
2023/05/21 00:39:13;;;;;;;7.80;1.60;;;;;;;;;;4975520;28;20042;-47
2023/05/21 00:41:41;;;;;;;4.53;1.35;;;;;;;;;;4961094;28;20676;-48
2023/05/21 00:44:12;;;;;;;5.93;1.30;;;;;;;;;;4972339;28;20050;-47
2023/05/21 00:46:42;;;;;;;4.23;0.97;;;;;;;;;;4967814;28;20136;-46
2023/05/21 00:49:12;;;;;;;8.52;1.30;;;;;;;;;;4971030;28;20587;-50
2023/05/21 00:51:40;;;;;;;6.60;1.10;;;;;;;;;;4989592;28;20293;-49
2023/05/21 00:54:08;;;;;;;6.43;1.40;;;;;;;;;;4961795;28;20065;-46
2023/05/21 00:56:37;;;;;;;4.40;0.73;;;;;;;;;;4990965;28;20045;-48
2023/05/21 00:59:04;;;;;;;6.10;0.90;;;;;;;;;;4958268;28;20042;-46
2023/05/21 01:01:35;;;;;;;3.97;0.93;;;;;;;;;;4979349;28;20038;-48
2023/05/21 01:04:04;;;;;;;8.13;1.30;;;;;;;;;;4976174;28;20495;-48
2023/05/21 01:06:34;;;;;;;4.57;0.82;;;;;;;;;;4973367;28;20124;-46
2023/05/21 01:09:05;;;;;;;4.50;1.17;;;;;;;;;;4970913;28;20057;-49
2023/05/21 01:11:37;;;;;;;3.80;1.00;;;;;;;;;;4965451;28;20050;-45
2023/05/21 01:14:08;;;;;;;10.63;1.15;;;;;;;;;;4974765;28;20113;-48
2023/05/21 01:16:38;;;;;;;6.28;1.45;;;;;;;;;;4950376;28;20058;-47
2023/05/21 01:19:08;;;;;;;5.90;1.20;;;;;;;;;;4973918;28;20511;-48
2023/05/21 01:21:38;;;;;;;4.78;1.20;;;;;;;;;;4975006;28;20045;-45
2023/05/21 01:24:07;;;;;;;7.00;1.23;;;;;;;;;;4987510;28;20045;-49
2023/05/21 01:26:37;;;;;;;5.57;1.50;;;;;;;;;;4942067;28;20258;-46
2023/05/21 01:29:06;;;;;;;6.85;1.60;;;;;;;;;;4970103;28;20045;-46
2023/05/21 01:31:37;;;;;;;7.40;1.55;;;;;;;;;;4961971;28;20038;-48
2023/05/21 01:34:05;;;;;;;7.07;1.20;;;;;;;;;;4980817;28;20053;-48
2023/05/21 01:36:39;;;;;;;4.17;1.03;;;;;;;;;;4982748;28;20049;-47
2023/05/21 01:39:15;;;;;;;5.47;0.98;;;;;;;;;;4963343;28;20036;-47
2023/05/21 01:41:45;;;;;;;4.15;0.98;;;;;;;;;;4976487;28;20104;-46
2023/05/21 01:44:16;;;;;;;4.88;1.60;;;;;;;;;;4969212;28;20053;-47
2023/05/21 01:46:43;;;;;;;6.93;1.60;;;;;;;;;;4941976;28;20502;-51
2023/05/21 01:49:12;;;;;;;4.30;1.20;;;;;;;;;;4985090;28;20065;-45
2023/05/21 01:51:40;;;;;;;6.35;1.25;;;;;;;;;;4984786;28;20504;-47
2023/05/21 01:54:09;;;;;;;5.07;1.20;;;;;;;;;;4956286;28;20516;-48
2023/05/21 01:56:37;;;;;;;8.85;1.40;;;;;;;;;;4984504;28;20026;-47
2023/05/21 01:59:07;;;;;;;8.35;1.58;;;;;;;;;;4968355;28;20071;-47
2023/05/21 02:01:35;;;;;;;6.60;1.47;;;;;;;;;;4978783;28;20038;-46
2023/05/21 02:04:02;;;;;;;6.03;1.20;;;;;;;;;;4967531;28;20072;-45
2023/05/21 02:06:31;;;;;;;6.50;1.20;;;;;;;;;;4976978;28;20053;-49
2023/05/21 02:08:58;;;;;;;5.43;1.65;;;;;;;;;;4974690;28;20042;-45
2023/05/21 02:11:28;;;;;;;5.13;1.42;;;;;;;;;;4980749;28;20128;-49
2023/05/21 02:13:57;;;;;;;4.67;1.27;;;;;;;;;;4981151;28;20487;-46
2023/05/21 02:16:25;;;;;;;9.30;1.60;;;;;;;;;;4983018;28;20061;-46
2023/05/21 02:18:56;;;;;;;6.00;1.42;;;;;;;;;;4949236;28;22049;-48
2023/05/21 02:21:25;;;;;;;4.68;1.25;;;;;;;;;;4982671;28;20694;-47
2023/05/21 02:23:52;;;;;;;5.40;1.10;;;;;;;;;;4995957;28;20041;-48
2023/05/21 02:26:21;;;;;;;15.70;1.43;;;;;;;;;;4961675;28;20100;-45
2023/05/21 02:28:54;;;;;;;5.05;1.25;;;;;;;;;;4979483;28;20142;-45
2023/05/21 02:31:22;;;;;;;12.00;1.10;;;;;;;;;;4963561;28;20317;-47
2023/05/21 02:33:51;;;;;;;5.07;1.02;;;;;;;;;;4976973;28;20119;-45
2023/05/21 02:36:19;;;;;;;5.57;1.38;;;;;;;;;;4986919;28;20097;-51
2023/05/21 02:38:48;;;;;;;5.80;1.20;;;;;;;;;;4971110;28;20049;-46
2023/05/21 02:41:16;;;;;;;4.65;1.20;;;;;;;;;;4976276;28;20037;-51
2023/05/21 02:43:43;;;;;;;5.10;1.35;;;;;;;;;;4967286;28;20638;-45
2023/05/21 02:46:13;;;;;;;5.28;1.50;;;;;;;;;;4992725;28;20466;-45
2023/05/21 02:48:41;;;;;;;7.07;1.30;;;;;;;;;;4987427;28;20709;-46
2023/05/21 02:51:11;;;;;;;8.70;1.40;;;;;;;;;;4972053;28;20389;-48
2023/05/21 02:53:39;;;;;;;7.30;1.30;;;;;;;;;;4951773;28;20412;-46
2023/05/21 02:56:08;;;;;;;9.10;1.20;;;;;;;;;;4976772;28;20240;-48
2023/05/21 02:58:35;;;;;;;6.35;1.10;;;;;;;;;;4959499;28;20085;-48
2023/05/21 03:01:03;;;;;;;4.20;1.00;;;;;;;;;;4982183;28;20597;-46
2023/05/21 03:03:33;;;;;;;4.47;1.07;;;;;;;;;;4973836;28;20120;-47
2023/05/21 03:06:01;;;;;;;5.13;1.33;;;;;;;;;;4980039;28;20050;-47
2023/05/21 03:08:30;;;;;;;4.88;1.30;;;;;;;;;;4954444;28;20038;-46
2023/05/21 03:10:58;;;;;;;4.68;1.13;;;;;;;;;;4985393;28;20065;-46
2023/05/21 03:13:26;;;;;;;7.18;1.80;;;;;;;;;;4977560;28;20037;-45
2023/05/21 03:15:55;;;;;;;6.63;1.33;;;;;;;;;;4973643;28;20622;-46
2023/05/21 03:18:23;;;;;;;7.07;1.38;;;;;;;;;;4967311;28;20038;-46
2023/05/21 03:20:52;;;;;;;5.35;1.58;;;;;;;;;;4971174;28;20053;-47
2023/05/21 03:23:20;;;;;;;5.15;1.20;;;;;;;;;;4985400;28;20475;-47
2023/05/21 03:25:48;;;;;;;5.85;1.30;;;;;;;;;;4970623;28;20049;-46
2023/05/21 03:28:22;;;;;;;4.33;1.10;;;;;;;;;;4977934;28;20046;-47
2023/05/21 03:30:52;;;;;;;8.60;1.30;;;;;;;;;;4976851;28;20049;-46
2023/05/21 03:33:19;;;;;;;6.57;1.27;;;;;;;;;;4974257;28;20038;-48
2023/05/21 03:35:48;;;;;;;9.15;1.75;;;;;;;;;;4949796;28;20046;-49
2023/05/21 03:38:17;;;;;;;6.20;1.30;;;;;;;;;;4966997;28;20049;-48
2023/05/21 03:40:45;;;;;;;7.27;1.43;;;;;;;;;;4984352;28;20030;-47
2023/05/21 03:43:13;;;;;;;6.55;1.33;;;;;;;;;;4976893;28;20380;-46
2023/05/21 03:45:41;;;;;;;7.28;1.35;;;;;;;;;;4984438;28;20483;-47
2023/05/21 03:48:11;;;;;;;8.43;1.15;;;;;;;;;;4968370;28;20050;-46
2023/05/21 03:50:40;;;;;;;6.18;1.65;;;;;;;;;;4968552;28;20041;-48
2023/05/21 03:53:09;;;;;;;5.63;1.17;;;;;;;;;;4988810;28;20720;-49
2023/05/21 03:55:38;;;;;;;5.57;1.35;;;;;;;;;;4985124;28;20042;-49
2023/05/21 03:58:06;;;;;;;7.85;1.60;;;;;;;;;;4983841;28;20100;-47
2023/05/21 04:00:36;;;;;;;7.45;1.15;;;;;;;;;;4971715;28;20037;-48
2023/05/21 04:03:05;;;;;;;6.25;1.40;;;;;;;;;;4984963;28;20519;-45
2023/05/21 04:05:33;;;;;;;4.83;1.30;;;;;;;;;;4963389;28;20496;-50
2023/05/21 04:08:02;;;;;;;4.75;1.42;;;;;;;;;;4976374;28;20124;-51
2023/05/21 04:10:30;;;;;;;7.50;1.23;;;;;;;;;;4968431;28;20057;-47
2023/05/21 04:13:00;;;;;;;5.20;1.10;;;;;;;;;;4959721;28;20440;-47
2023/05/21 04:15:29;;;;;;;6.45;1.30;;;;;;;;;;4974660;28;20089;-49
2023/05/21 04:17:57;;;;;;;7.30;1.37;;;;;;;;;;4969218;28;20107;-48
2023/05/21 04:20:25;;;;;;;8.18;1.23;;;;;;;;;;4980616;28;20038;-47
2023/05/21 04:22:54;;;;;;;7.70;1.45;;;;;;;;;;4976820;28;20528;-47
2023/05/21 04:25:24;;;;;;;6.10;1.10;;;;;;;;;;4974381;28;20104;-46
2023/05/21 04:27:53;;;;;;;6.95;1.35;;;;;;;;;;4977513;28;20038;-46
2023/05/21 04:30:22;;;;;;;5.67;1.30;;;;;;;;;;4973803;28;20065;-48
2023/05/21 04:32:53;;;;;;;5.43;1.52;;;;;;;;;;4973417;28;20050;-48
2023/05/21 04:35:22;;;;;;;7.20;1.35;;;;;;;;;;4973018;28;20065;-47
2023/05/21 04:37:50;;;;;;;5.97;1.85;;;;;;;;;;4975941;28;20842;-49
2023/05/21 04:40:23;;;;;;;5.97;1.67;;;;;;;;;;4974068;28;20341;-46
2023/05/21 04:42:51;;;;;;;7.60;1.30;;;;;;;;;;4977592;28;20061;-46
2023/05/21 04:45:18;;;;;;;7.65;1.50;;;;;;;;;;4960545;28;20273;-47
2023/05/21 04:47:48;;;;;;;5.28;1.35;;;;;;;;;;4980125;28;20046;-49
2023/05/21 04:50:17;;;;;;;9.55;1.75;;;;;;;;;;4973353;28;20037;-49
2023/05/21 04:52:45;;;;;;;4.93;1.58;;;;;;;;;;4981834;28;20042;-49
2023/05/21 04:55:17;;;;;;;8.63;1.03;;;;;;;;;;4965706;28;20136;-48
2023/05/21 04:57:46;;;;;;;5.10;1.48;;;;;;;;;;4974909;28;20042;-45
2023/05/21 05:00:15;;;;;;;8.45;1.42;;;;;;;;;;4962788;28;20053;-47
2023/05/21 05:02:43;;;;;;;5.32;1.58;;;;;;;;;;4969797;28;20038;-48
2023/05/21 05:05:13;;;;;;;6.88;1.58;;;;;;;;;;4955072;28;20673;-48
2023/05/21 05:07:41;;;;;;;6.37;1.43;;;;;;;;;;4991271;28;20132;-47
2023/05/21 05:10:09;;;;;;;6.63;1.33;;;;;;;;;;4973079;28;20052;-49
2023/05/21 05:12:37;;;;;;;9.32;1.63;;;;;;;;;;4982921;28;20037;-46
2023/05/21 05:15:06;;;;;;;8.43;1.70;;;;;;;;;;4970649;28;20041;-46
2023/05/21 05:17:34;;;;;;;7.47;1.98;;;;;;;;;;4972657;28;21052;-47
2023/05/21 05:20:03;;;;;;;6.67;1.40;;;;;;;;;;4974452;28;20495;-49
2023/05/21 05:22:33;;;;;;;4.85;1.33;;;;;;;;;;4962577;28;20049;-46
2023/05/21 05:25:01;;;;;;;6.82;1.60;;;;;;;;;;4984557;28;20050;-46
2023/05/21 05:27:29;;;;;;;8.05;1.63;;;;;;;;;;4974209;28;20138;-48
2023/05/21 05:29:57;;;;;;;7.65;1.83;;;;;;;;;;4937891;28;20042;-49
2023/05/21 05:32:25;;;;;;;10.33;1.67;;;;;;;;;;4976288;28;20130;-46
2023/05/21 05:34:53;;;;;;;9.68;1.80;;;;;;;;;;4960475;28;21719;-46
2023/05/21 05:37:21;;;;;;;5.85;1.98;;;;;;;;;;4980998;28;20038;-46
2023/05/21 05:39:51;;;;;;;5.95;1.70;;;;;;;;;;4962479;28;20624;-50
2023/05/21 05:42:19;;;;;;;8.43;1.80;;;;;;;;;;4973024;28;20046;-48
2023/05/21 05:44:47;;;;;;;6.90;1.40;;;;;;;;;;4968846;28;20057;-46
2023/05/21 05:47:15;;;;;;;8.18;1.60;;;;;;;;;;4966325;28;20037;-48
2023/05/21 05:49:43;;;;;;;9.70;2.30;;;;;;;;;;4982305;28;20055;-46
2023/05/21 05:52:13;;;;;;;8.98;1.70;;;;;;;;;;4983205;28;20471;-48
2023/05/21 05:54:41;;;;;;;9.52;2.20;;;;;;;;;;4956787;28;20030;-48
2023/05/21 05:57:11;;;;;;;6.20;1.50;;;;;;;;;;4966665;28;21327;-51
2023/05/21 05:59:38;;;;;;;8.02;1.90;;;;;;;;;;4972487;28;20108;-48
2023/05/21 06:02:07;;;;;;;6.28;1.60;;;;;;;;;;4966621;28;20640;-45
2023/05/21 06:04:35;;;;;;;7.70;1.85;;;;;;;;;;4967966;28;20125;-49
2023/05/21 06:07:03;;;;;;;7.82;1.63;;;;;;;;;;4940214;28;20080;-46
2023/05/21 06:09:31;;;;;;;10.03;2.10;;;;;;;;;;4965842;28;20665;-48
2023/05/21 06:11:59;;;;;;;4.95;1.63;;;;;;;;;;4972735;28;20046;-47
2023/05/21 06:14:28;;;;;;;13.63;2.15;;;;;;;;;;4971917;28;20035;-47
2023/05/21 06:16:56;;;;;;;11.40;2.20;;;;;;;;;;4972091;28;20519;-48
2023/05/21 06:19:24;;;;;;;5.40;2.10;;;;;;;;;;4966533;28;20044;-49
2023/05/21 06:21:52;;;;;;;7.63;2.00;;;;;;;;;;4976743;28;20497;-47
2023/05/21 06:24:20;;;;;;;4.88;1.50;;;;;;;;;;4963675;28;20046;-46
2023/05/21 06:26:48;;;;;;;6.75;2.33;;;;;;;;;;4983281;28;20382;-49
2023/05/21 06:29:18;;;;;;;6.30;1.80;;;;;;;;;;4964526;28;20462;-49
2023/05/21 06:31:48;;;;;;;9.98;1.77;;;;;;;;;;4973145;28;20050;-48
2023/05/21 06:34:15;;;;;;;8.00;2.00;;;;;;;;;;4978777;28;20038;-47
2023/05/21 06:36:43;;;;;;;6.63;1.95;;;;;;;;;;4970269;28;20038;-52
2023/05/21 06:39:11;;;;;;;6.30;1.67;;;;;;;;;;4947141;28;20070;-48
2023/05/21 06:41:40;;;;;;;5.63;1.65;;;;;;;;;;4971639;28;20041;-53
2023/05/21 06:44:08;;;;;;;8.82;2.10;;;;;;;;;;4977917;28;20125;-46
2023/05/21 06:46:37;;;;;;;6.10;1.60;;;;;;;;;;4963421;28;20202;-50
2023/05/21 06:49:06;;;;;;;6.78;1.80;;;;;;;;;;4974259;28;20047;-47
2023/05/21 06:51:34;;;;;;;8.18;1.73;;;;;;;;;;4971077;28;20034;-51
2023/05/21 06:54:03;;;;;;;5.72;1.50;;;;;;;;;;4967579;28;20039;-49
2023/05/21 06:56:31;;;;;;;7.38;1.60;;;;;;;;;;4975719;28;20034;-48
2023/05/21 06:58:59;;;;;;;8.33;1.77;;;;;;;;;;4964794;28;20062;-47
2023/05/21 07:01:27;;;;;;;8.50;2.17;;;;;;;;;;4980701;28;20034;-47
2023/05/21 07:03:55;;;;;;;5.15;1.50;;;;;;;;;;4967589;28;20547;-48
2023/05/21 07:06:26;;;;;;;7.15;1.38;;;;;;;;;;4979835;28;20045;-49
2023/05/21 07:08:53;;;;;;;9.82;1.67;;;;;;;;;;4966568;28;20942;-50
2023/05/21 07:11:24;;;;;;;8.13;1.53;;;;;;;;;;4972080;28;20034;-50
2023/05/21 07:13:51;;;;;;;7.97;1.90;;;;;;;;;;4975713;28;20035;-47
2023/05/21 07:16:19;;;;;;;10.10;2.00;;;;;;;;;;4975490;28;20508;-48
2023/05/21 07:18:48;;;;;;;6.82;1.77;;;;;;;;;;4981181;28;20056;-49
2023/05/21 07:21:15;;;;;;;7.97;1.80;;;;;;;;;;4973968;28;20727;-49
2023/05/21 07:23:44;;;;;;;7.57;2.03;;;;;;;;;;4977583;28;20046;-49
2023/05/21 07:26:13;;;;;;;7.90;1.63;;;;;;;;;;4982338;28;20069;-48
2023/05/21 07:28:41;;;;;;;8.05;1.48;;;;;;;;;;4958337;28;21244;-49
2023/05/21 07:31:10;;;;;;;7.43;1.77;;;;;;;;;;4973706;28;20046;-48
2023/05/21 07:33:39;;;;;;;5.40;1.52;;;;;;;;;;4971538;28;20049;-49
2023/05/21 07:36:07;;;;;;;7.50;1.57;;;;;;;;;;4967508;28;20786;-47
2023/05/21 07:38:35;;;;;;;5.72;1.48;;;;;;;;;;4964909;28;20038;-46
2023/05/21 07:41:04;;;;;;;7.38;1.75;;;;;;;;;;4971960;28;20046;-47
2023/05/21 07:43:32;;;;;;;7.88;1.80;;;;;;;;;;4961723;28;20497;-49
2023/05/21 07:46:01;;;;;;;6.72;1.80;;;;;;;;;;4981070;28;20039;-49
2023/05/21 07:48:29;;;;;;;6.20;1.60;;;;;;;;;;4971773;28;20864;-46
2023/05/21 07:50:57;;;;;;;9.07;1.88;;;;;;;;;;4983494;28;20038;-50
2023/05/21 07:53:25;;;;;;;6.28;1.45;;;;;;;;;;4965282;28;20404;-48
2023/05/21 07:55:53;;;;;;;6.35;2.03;;;;;;;;;;4982613;28;20332;-49
2023/05/21 07:58:22;;;;;;;7.70;1.95;;;;;;;;;;4981638;28;20045;-49
2023/05/21 08:00:51;;;;;;;5.97;1.87;;;;;;;;;;4969249;28;20042;-47
2023/05/21 08:03:19;;;;;;;7.78;1.67;;;;;;;;;;4970172;28;20038;-46
2023/05/21 08:05:49;;;;;;;9.30;1.38;;;;;;;;;;4988242;28;20073;-48
2023/05/21 08:08:17;;;;;;;5.85;1.63;;;;;;;;;;4969148;28;20074;-49
2023/05/21 08:10:46;;;;;;;7.72;1.67;;;;;;;;;;4982190;28;20038;-51
2023/05/21 08:13:15;;;;;;;5.97;1.47;;;;;;;;;;4953413;28;20084;-51
2023/05/21 08:15:44;;;;;;;6.55;1.67;;;;;;;;;;4979407;28;20048;-50
2023/05/21 08:18:12;;;;;;;4.78;1.50;;;;;;;;;;4965298;28;20061;-48
2023/05/21 08:20:40;;;;;;;6.10;1.83;;;;;;;;;;4972374;28;21274;-50
2023/05/21 08:23:07;;;;;;;6.85;1.50;;;;;;;;;;4983009;28;20464;-48
2023/05/21 08:25:36;;;;;;;6.93;1.63;;;;;;;;;;4984620;28;20037;-47
2023/05/21 08:28:05;;;;;;;4.85;1.38;;;;;;;;;;4970485;28;20049;-49
2023/05/21 08:30:33;;;;;;;4.93;1.60;;;;;;;;;;4975095;28;20508;-48
2023/05/21 08:33:03;;;;;;;7.25;1.52;;;;;;;;;;4964947;28;20045;-49
2023/05/21 08:35:31;;;;;;;7.60;1.40;;;;;;;;;;4988779;28;20049;-51
2023/05/21 08:37:59;;;;;;;5.50;1.73;;;;;;;;;;4956170;28;20635;-50
2023/05/21 08:40:27;;;;;;;6.25;1.80;;;;;;;;;;4967658;28;20046;-50
2023/05/21 08:42:55;;;;;;;5.45;1.52;;;;;;;;;;4979583;28;20492;-46
2023/05/21 08:45:23;;;;;;;5.75;1.35;;;;;;;;;;4963757;28;20096;-46
2023/05/21 08:47:54;;;;;;;10.25;1.45;;;;;;;;;;4979642;28;20050;-48
2023/05/21 08:50:24;;;;;;;5.17;1.67;;;;;;;;;;4970625;28;20100;-50
2023/05/21 08:52:54;;;;;;;4.22;1.20;;;;;;;;;;4983343;28;20038;-48
2023/05/21 08:55:22;;;;;;;8.52;1.63;;;;;;;;;;4972447;28;20038;-48
2023/05/21 08:57:50;;;;;;;4.28;1.13;;;;;;;;;;4976143;28;20046;-48
2023/05/21 09:00:19;;;;;;;7.88;1.38;;;;;;;;;;4973141;28;20066;-48
2023/05/21 09:02:48;;;;;;;4.37;1.40;;;;;;;;;;4961527;28;20493;-48
2023/05/21 09:05:18;;;;;;;5.00;1.67;;;;;;;;;;4970979;28;20365;-47
2023/05/21 09:07:54;;;;;;;4.13;0.85;;;;;;;;;;4985229;28;20038;-48
2023/05/21 09:10:26;;;;;;;4.45;1.38;;;;;;;;;;4962765;28;20042;-48
2023/05/21 09:12:56;;;;;;;5.35;1.20;;;;;;;;;;4975461;28;20484;-47
2023/05/21 09:15:26;;;;;;;4.63;1.50;;;;;;;;;;4972405;28;20038;-47
2023/05/21 09:17:54;;;;;;;5.97;1.08;;;;;;;;;;4939084;28;20059;-48
2023/05/21 09:20:25;;;;;;;5.40;1.38;;;;;;;;;;4949570;28;20517;-47
2023/05/21 09:22:54;;;;;;;5.53;1.30;;;;;;;;;;4937388;28;20043;-46
2023/05/21 09:25:23;;;;;;;5.15;1.35;;;;;;;;;;4939028;28;20492;-51
2023/05/21 09:27:55;;;;;;;4.90;1.20;;;;;;;;;;4947075;28;20106;-47
2023/05/21 09:30:27;;;;;;;3.58;0.80;;;;;;;;;;4941097;28;20049;-49
2023/05/21 09:33:00;;;;;;;4.60;1.33;;;;;;;;;;4935404;28;20049;-48
2023/05/21 09:35:28;;;;;;;4.53;1.27;;;;;;;;;;4932846;28;20042;-46
2023/05/21 09:37:57;;;;;;;5.75;1.60;;;;;;;;;;4932653;28;20078;-51
2023/05/21 09:40:25;;;;;;;3.90;0.87;;;;;;;;;;4942274;28;20062;-47
2023/05/21 09:42:54;;;;;;;4.18;0.95;;;;;;;;;;4933676;28;20046;-48
2023/05/21 09:45:23;;;;;;;3.65;1.13;;;;;;;;;;4932290;28;20039;-49
2023/05/21 09:47:52;;;;;;;3.80;0.90;;;;;;;;;;4933740;28;20039;-50
2023/05/21 09:50:21;;;;;;;4.00;1.02;;;;;;;;;;4941020;28;20064;-47
2023/05/21 09:52:51;;;;;;;7.53;1.00;;;;;;;;;;4935939;28;20482;-52
2023/05/21 09:55:23;;;;;;;4.68;0.90;;;;;;;;;;4928958;28;20063;-49
2023/05/21 09:57:51;;;;;;;6.53;1.13;;;;;;;;;;4945338;28;20073;-48
2023/05/21 10:00:20;;;;;;;4.50;1.40;;;;;;;;;;4930572;28;20641;-47
2023/05/21 10:02:48;;;;;;;5.40;1.20;;;;;;;;;;4938276;28;20489;-50
2023/05/21 10:05:17;;;;;;;4.73;0.93;;;;;;;;;;4928977;28;20059;-50
2023/05/21 10:07:50;;;;;;;6.35;1.30;;;;;;;;;;4951942;28;20031;-48
2023/05/21 10:10:19;;;;;;;4.13;1.00;;;;;;;;;;4922664;28;20045;-49
2023/05/21 10:12:51;;;;;;;5.78;1.17;;;;;;;;;;4923340;28;20046;-48
2023/05/21 10:15:22;;;;;;;4.57;1.13;;;;;;;;;;4927274;28;20050;-49
2023/05/21 10:17:50;;;;;;;7.67;1.07;;;;;;;;;;4966095;28;20049;-51
2023/05/21 10:20:17;;;;;;;4.75;1.08;;;;;;;;;;4976988;28;20038;-51
2023/05/21 10:22:47;;;;;;;4.53;1.27;;;;;;;;;;4970567;28;20551;-53
2023/05/21 10:25:16;;;;;;;4.40;0.85;;;;;;;;;;4979906;28;20503;-49
2023/05/21 10:27:44;;;;;;;5.05;1.13;;;;;;;;;;4974628;28;20042;-49
2023/05/21 10:30:14;;;;;;;5.53;1.30;;;;;;;;;;4948266;28;20061;-50
2023/05/21 10:32:43;;;;;;;3.50;1.02;;;;;;;;;;4971446;28;20038;-52
2023/05/21 10:35:11;;;;;;;6.05;1.33;;;;;;;;;;4975247;28;20073;-49
2023/05/21 10:37:42;;;;;;;4.57;1.20;;;;;;;;;;4962589;28;20161;-50
2023/05/21 10:40:10;;;;;;;3.75;0.90;;;;;;;;;;4978626;28;20046;-50
2023/05/21 10:42:59;;;;;;;4.27;0.70;;;;;;;;;;4955330;28;20041;-53
2023/05/21 10:45:35;;;;;;;4.50;1.10;;;;;;;;;;4972414;28;20531;-51
2023/05/21 10:48:13;;;;;;;5.80;0.85;;;;;;;;;;4977289;28;20097;-51
2023/05/21 10:51:09;;;;;;;6.07;1.10;;;;;;;;;;4973477;28;20089;-54
2023/05/21 10:53:43;;;;;;;5.18;0.98;;;;;;;;;;4940831;28;20050;-52
2023/05/21 10:56:17;;;;;;;4.47;1.13;;;;;;;;;;4976789;28;20041;-52
2023/05/21 10:58:55;;;;;;;3.83;0.80;;;;;;;;;;4975349;28;21035;-51
2023/05/21 11:01:28;;;;;;;4.00;1.00;;;;;;;;;;4982576;28;20046;-47
2023/05/21 11:03:57;;;;;;;4.00;0.90;;;;;;;;;;4963574;28;20499;-49
2023/05/21 11:06:26;;;;;;;3.20;0.77;;;;;;;;;;4976832;28;20156;-49
2023/05/21 11:08:56;;;;;;;3.50;0.80;;;;;;;;;;4977457;28;20381;-50
2023/05/21 11:11:50;;;;;;;4.80;0.88;;;;;;;;;;4975325;28;20046;-47
2023/05/21 11:14:38;;;;;;;4.38;1.00;;;;;;;;;;4937073;28;20057;-47
2023/05/21 11:17:16;;;;;;;4.47;0.68;;;;;;;;;;4982173;28;20058;-48
2023/05/21 11:19:50;;;;;;;3.97;0.98;;;;;;;;;;4979009;28;20050;-50
2023/05/21 11:22:22;;;;;;;4.70;1.13;;;;;;;;;;4978521;28;20033;-48
2023/05/21 11:24:50;;;;;;;4.63;1.05;;;;;;;;;;4972443;28;20057;-51
2023/05/21 11:27:31;;;;;;;3.83;0.90;;;;;;;;;;4988046;28;20048;-47
2023/05/21 11:29:59;;;;;;;5.00;1.00;;;;;;;;;;4969502;28;20041;-49
2023/05/21 11:32:28;;;;;;;4.82;1.20;;;;;;;;;;4967394;28;20873;-48
2023/05/21 11:34:59;;;;;;;2.93;0.70;;;;;;;;;;4967151;28;20125;-49
2023/05/21 11:37:34;;;;;;;4.78;0.80;;;;;;;;;;4985047;28;20038;-51
2023/05/21 11:40:18;;;;;;;5.43;1.00;;;;;;;;;;4972968;28;20053;-49
2023/05/21 11:42:49;;;;;;;5.45;1.27;;;;;;;;;;4977362;28;20563;-49
2023/05/21 11:45:17;;;;;;;4.22;1.05;;;;;;;;;;4976572;28;20519;-51
2023/05/21 11:47:48;;;;;;;4.70;1.33;;;;;;;;;;4973618;28;20507;-50
2023/05/21 11:50:17;;;;;;;3.78;0.93;;;;;;;;;;4976807;28;20046;-50
2023/05/21 11:52:45;;;;;;;4.28;1.23;;;;;;;;;;4956034;28;20052;-52
2023/05/21 11:55:20;;;;;;;3.63;0.77;;;;;;;;;;4980261;28;20534;-50
2023/05/21 11:57:52;;;;;;;3.53;0.88;;;;;;;;;;4985878;28;20496;-49
2023/05/21 12:00:20;;;;;;;3.07;0.60;;;;;;;;;;4966372;28;20041;-49
2023/05/21 12:02:50;;;;;;;4.18;1.17;;;;;;;;;;4971488;28;20065;-47
2023/05/21 12:05:20;;;;;;;3.88;0.82;;;;;;;;;;4976592;28;20089;-47
2023/05/21 12:07:49;;;;;;;4.05;0.88;;;;;;;;;;4983314;28;20038;-48
2023/05/21 12:10:20;;;;;;;4.13;1.70;;;;;;;;;;4944564;28;20061;-49
2023/05/21 12:12:49;;;;;;;3.90;1.10;;;;;;;;;;4976528;28;20062;-49
2023/05/21 12:15:23;;;;;;;4.57;1.00;;;;;;;;;;4970978;28;20042;-49
2023/05/21 12:17:54;;;;;;;5.03;1.00;;;;;;;;;;4973173;28;20049;-48
2023/05/21 12:20:22;;;;;;;3.65;0.93;;;;;;;;;;4979805;28;20042;-51
2023/05/21 12:22:49;;;;;;;3.80;1.10;;;;;;;;;;4957626;28;20151;-48
2023/05/21 12:25:19;;;;;;;5.30;1.27;;;;;;;;;;4967658;28;20041;-49
2023/05/21 12:27:48;;;;;;;5.72;1.20;;;;;;;;;;4987517;28;20077;-48
2023/05/21 12:30:16;;;;;;;6.90;1.10;;;;;;;;;;4968798;28;20046;-49
2023/05/21 12:32:44;;;;;;;3.58;0.82;;;;;;;;;;4969188;28;20054;-50
2023/05/21 12:35:21;;;;;;;3.92;1.10;;;;;;;;;;4973216;28;20622;-48
2023/05/21 12:37:51;;;;;;;4.33;0.80;;;;;;;;;;4979325;28;20531;-47
2023/05/21 12:40:19;;;;;;;4.60;0.90;;;;;;;;;;4967359;28;20050;-50
2023/05/21 12:42:48;;;;;;;4.38;1.20;;;;;;;;;;4970318;28;20038;-53
2023/05/21 12:45:17;;;;;;;5.50;1.30;;;;;;;;;;4972246;28;21225;-53
2023/05/21 12:47:48;;;;;;;3.30;0.80;;;;;;;;;;4973491;28;20592;-53
2023/05/21 12:50:20;;;;;;;5.07;1.10;;;;;;;;;;4978949;28;20038;-48
2023/05/21 12:52:49;;;;;;;3.08;0.60;;;;;;;;;;4980116;28;20062;-49
2023/05/21 12:55:17;;;;;;;3.53;1.02;;;;;;;;;;4978029;28;20444;-48
2023/05/21 12:57:46;;;;;;;3.35;1.02;;;;;;;;;;4978332;28;20053;-52
2023/05/21 13:00:13;;;;;;;4.40;0.95;;;;;;;;;;4961090;28;20079;-49
2023/05/21 13:02:42;;;;;;;4.07;0.90;;;;;;;;;;4982318;28;20042;-51
2023/05/21 13:05:18;;;;;;;4.57;1.25;;;;;;;;;;4969025;28;20108;-49
2023/05/21 13:07:47;;;;;;;6.60;1.10;;;;;;;;;;4981601;28;20049;-49
2023/05/21 13:10:16;;;;;;;5.20;1.42;;;;;;;;;;4970731;28;20066;-47
2023/05/21 13:12:45;;;;;;;4.57;1.20;;;;;;;;;;4979427;28;20365;-51
2023/05/21 13:15:14;;;;;;;4.73;1.13;;;;;;;;;;4965985;28;20041;-49
2023/05/21 13:17:42;;;;;;;4.10;1.27;;;;;;;;;;4971919;28;20058;-51
2023/05/21 13:20:11;;;;;;;4.25;1.30;;;;;;;;;;4975998;28;20038;-49
2023/05/21 13:22:41;;;;;;;4.57;1.15;;;;;;;;;;4972432;28;20045;-49
2023/05/21 13:25:09;;;;;;;4.10;1.15;;;;;;;;;;4976175;28;20370;-50
2023/05/21 13:27:38;;;;;;;4.40;0.97;;;;;;;;;;4979138;28;20046;-48
2023/05/21 13:30:07;;;;;;;4.13;1.30;;;;;;;;;;4945316;28;20234;-48
2023/05/21 13:32:35;;;;;;;4.13;1.40;;;;;;;;;;4957752;28;20042;-51
2023/05/21 13:35:04;;;;;;;3.85;1.10;;;;;;;;;;4962560;28;20508;-51
2023/05/21 13:37:34;;;;;;;4.22;1.30;;;;;;;;;;4970022;28;20065;-51
2023/05/21 13:40:02;;;;;;;5.97;1.80;;;;;;;;;;4970096;28;20042;-49
2023/05/21 13:42:30;;;;;;;8.15;2.35;;;;;;;;;;4983208;28;20042;-50
2023/05/21 13:45:02;;;;;;;5.32;1.80;;;;;;;;;;4961924;28;20049;-46
2023/05/21 13:47:29;;;;;;;5.20;1.58;;;;;;;;;;4977084;28;20400;-52
2023/05/21 13:49:57;;;;;;;4.53;1.48;;;;;;;;;;4955023;28;20401;-47
2023/05/21 13:52:25;;;;;;;4.27;1.50;;;;;;;;;;4973158;28;20136;-52
2023/05/21 13:54:53;;;;;;;5.03;1.38;;;;;;;;;;4954104;28;20472;-52
2023/05/21 13:57:21;;;;;;;4.63;1.58;;;;;;;;;;4960870;28;20046;-49
2023/05/21 13:59:49;;;;;;;3.72;1.17;;;;;;;;;;4976629;28;20065;-51
2023/05/21 14:02:19;;;;;;;6.75;1.60;;;;;;;;;;4951598;28;20053;-48
2023/05/21 14:04:47;;;;;;;4.43;1.17;;;;;;;;;;4981777;28;20665;-51
2023/05/21 14:07:15;;;;;;;4.10;1.20;;;;;;;;;;4965787;28;20092;-50
2023/05/21 14:09:44;;;;;;;4.22;1.13;;;;;;;;;;4990448;28;20061;-47
2023/05/21 14:12:13;;;;;;;5.30;1.30;;;;;;;;;;4973065;28;20458;-50
2023/05/21 14:14:42;;;;;;;4.70;1.30;;;;;;;;;;4978968;28;20072;-48
2023/05/21 14:17:10;;;;;;;4.77;1.20;;;;;;;;;;4982535;28;20051;-50
2023/05/21 14:19:39;;;;;;;4.25;1.33;;;;;;;;;;4972427;28;20079;-51
2023/05/21 14:22:08;;;;;;;4.15;1.35;;;;;;;;;;4974656;28;20042;-52
2023/05/21 14:24:35;;;;;;;3.88;1.13;;;;;;;;;;4980170;28;20042;-52
2023/05/21 14:27:03;;;;;;;4.15;1.20;;;;;;;;;;4954314;28;20672;-53
2023/05/21 14:29:32;;;;;;;4.33;1.40;;;;;;;;;;4982498;28;20524;-49
2023/05/21 14:31:59;;;;;;;3.60;0.95;;;;;;;;;;4972460;28;20049;-52
2023/05/21 14:34:33;;;;;;;4.32;1.10;;;;;;;;;;4979549;28;20076;-49
2023/05/21 14:37:03;;;;;;;4.90;1.35;;;;;;;;;;4975134;28;20042;-52
2023/05/21 14:39:30;;;;;;;5.30;1.30;;;;;;;;;;4972867;28;20042;-49
2023/05/21 14:41:58;;;;;;;4.50;1.80;;;;;;;;;;4969080;28;20274;-51
2023/05/21 14:44:26;;;;;;;7.75;1.80;;;;;;;;;;4964277;28;20049;-48
2023/05/21 14:46:54;;;;;;;3.60;1.23;;;;;;;;;;4976633;28;20058;-49
2023/05/21 14:49:21;;;;;;;3.55;0.90;;;;;;;;;;4963698;28;20045;-47
2023/05/21 14:51:50;;;;;;;3.63;1.13;;;;;;;;;;4981025;28;20054;-48
2023/05/21 14:54:19;;;;;;;3.87;1.20;;;;;;;;;;4976306;28;20496;-47
2023/05/21 14:56:46;;;;;;;4.07;1.27;;;;;;;;;;4989833;28;20046;-49